sensor_id;sensor_type;location;lat;lon;timestamp;P1;durP1;ratioP1;P2;durP2;ratioP2
66741;SDS011;53654;54.152;19.432;2022-12-18T00:01:19;130.20;;;35.30;;
66741;SDS011;53654;54.152;19.432;2022-12-18T00:03:48;130.90;;;34.00;;
66741;SDS011;53654;54.152;19.432;2022-12-18T00:06:16;142.30;;;39.20;;
66741;SDS011;53654;54.152;19.432;2022-12-18T00:08:44;161.60;;;39.70;;
66741;SDS011;53654;54.152;19.432;2022-12-18T00:11:13;132.80;;;41.40;;
66741;SDS011;53654;54.152;19.432;2022-12-18T00:13:43;128.70;;;35.20;;
66741;SDS011;53654;54.152;19.432;2022-12-18T00:16:12;92.10;;;35.00;;
66741;SDS011;53654;54.152;19.432;2022-12-18T00:18:41;84.00;;;36.20;;
66741;SDS011;53654;54.152;19.432;2022-12-18T00:21:09;136.00;;;33.50;;
66741;SDS011;53654;54.152;19.432;2022-12-18T00:23:37;114.60;;;29.40;;
66741;SDS011;53654;54.152;19.432;2022-12-18T00:26:07;130.60;;;30.20;;
66741;SDS011;53654;54.152;19.432;2022-12-18T00:28:36;108.40;;;29.70;;
66741;SDS011;53654;54.152;19.432;2022-12-18T00:31:07;122.80;;;31.40;;
66741;SDS011;53654;54.152;19.432;2022-12-18T00:33:37;101.80;;;33.30;;
66741;SDS011;53654;54.152;19.432;2022-12-18T00:36:18;81.80;;;32.20;;
66741;SDS011;53654;54.152;19.432;2022-12-18T00:38:47;71.50;;;34.10;;
66741;SDS011;53654;54.152;19.432;2022-12-18T00:41:17;94.40;;;32.40;;
66741;SDS011;53654;54.152;19.432;2022-12-18T00:44:05;105.70;;;31.20;;
66741;SDS011;53654;54.152;19.432;2022-12-18T00:46:34;92.50;;;29.80;;
66741;SDS011;53654;54.152;19.432;2022-12-18T00:49:00;88.10;;;29.20;;
66741;SDS011;53654;54.152;19.432;2022-12-18T00:51:27;75.20;;;30.10;;
66741;SDS011;53654;54.152;19.432;2022-12-18T00:53:54;70.20;;;29.50;;
66741;SDS011;53654;54.152;19.432;2022-12-18T00:56:21;72.60;;;28.70;;
66741;SDS011;53654;54.152;19.432;2022-12-18T00:58:49;64.90;;;28.70;;
66741;SDS011;53654;54.152;19.432;2022-12-18T01:01:16;52.30;;;27.80;;
66741;SDS011;53654;54.152;19.432;2022-12-18T01:03:44;52.90;;;28.40;;
66741;SDS011;53654;54.152;19.432;2022-12-18T01:06:13;55.40;;;31.80;;
66741;SDS011;53654;54.152;19.432;2022-12-18T01:08:41;67.10;;;31.50;;
66741;SDS011;53654;54.152;19.432;2022-12-18T01:11:15;71.90;;;32.30;;
66741;SDS011;53654;54.152;19.432;2022-12-18T01:13:44;73.80;;;32.40;;
66741;SDS011;53654;54.152;19.432;2022-12-18T01:16:11;70.60;;;32.10;;
66741;SDS011;53654;54.152;19.432;2022-12-18T01:18:39;60.20;;;34.00;;
66741;SDS011;53654;54.152;19.432;2022-12-18T01:21:10;63.30;;;30.90;;
66741;SDS011;53654;54.152;19.432;2022-12-18T01:23:38;76.70;;;30.50;;
66741;SDS011;53654;54.152;19.432;2022-12-18T01:26:07;73.90;;;31.60;;
66741;SDS011;53654;54.152;19.432;2022-12-18T01:28:43;67.90;;;32.10;;
66741;SDS011;53654;54.152;19.432;2022-12-18T01:31:11;62.80;;;32.20;;
66741;SDS011;53654;54.152;19.432;2022-12-18T01:33:40;50.20;;;29.30;;
66741;SDS011;53654;54.152;19.432;2022-12-18T01:36:07;50.20;;;29.00;;
66741;SDS011;53654;54.152;19.432;2022-12-18T01:38:40;55.90;;;28.20;;
66741;SDS011;53654;54.152;19.432;2022-12-18T01:41:07;47.60;;;28.90;;
66741;SDS011;53654;54.152;19.432;2022-12-18T01:44:46;52.00;;;28.90;;
66741;SDS011;53654;54.152;19.432;2022-12-18T01:46:52;55.40;;;30.80;;
66741;SDS011;53654;54.152;19.432;2022-12-18T01:49:19;64.60;;;29.60;;
66741;SDS011;53654;54.152;19.432;2022-12-18T01:51:45;57.70;;;29.20;;
66741;SDS011;53654;54.152;19.432;2022-12-18T01:54:12;57.80;;;28.20;;
66741;SDS011;53654;54.152;19.432;2022-12-18T01:56:38;51.50;;;26.30;;
66741;SDS011;53654;54.152;19.432;2022-12-18T01:59:06;53.40;;;27.00;;
66741;SDS011;53654;54.152;19.432;2022-12-18T02:01:36;55.30;;;28.90;;
66741;SDS011;53654;54.152;19.432;2022-12-18T02:09:46;56.50;;;29.80;;
66741;SDS011;53654;54.152;19.432;2022-12-18T02:12:18;54.70;;;28.60;;
66741;SDS011;53654;54.152;19.432;2022-12-18T02:14:59;57.50;;;30.50;;
66741;SDS011;53654;54.152;19.432;2022-12-18T02:17:51;52.60;;;29.00;;
66741;SDS011;53654;54.152;19.432;2022-12-18T02:20:38;51.80;;;29.70;;
66741;SDS011;53654;54.152;19.432;2022-12-18T02:28:45;52.50;;;27.60;;
66741;SDS011;53654;54.152;19.432;2022-12-18T02:31:23;47.70;;;27.90;;
66741;SDS011;53654;54.152;19.432;2022-12-18T02:33:53;54.90;;;28.40;;
66741;SDS011;53654;54.152;19.432;2022-12-18T02:36:26;52.10;;;30.00;;
66741;SDS011;53654;54.152;19.432;2022-12-18T02:38:55;60.20;;;28.80;;
66741;SDS011;53654;54.152;19.432;2022-12-18T02:41:25;63.70;;;28.60;;
66741;SDS011;53654;54.152;19.432;2022-12-18T02:43:56;58.80;;;28.80;;
66741;SDS011;53654;54.152;19.432;2022-12-18T02:46:32;59.10;;;28.60;;
66741;SDS011;53654;54.152;19.432;2022-12-18T02:54:55;86.50;;;30.60;;
66741;SDS011;53654;54.152;19.432;2022-12-18T02:57:40;68.30;;;32.20;;
66741;SDS011;53654;54.152;19.432;2022-12-18T03:00:14;74.00;;;28.80;;
66741;SDS011;53654;54.152;19.432;2022-12-18T03:02:47;84.60;;;29.90;;
66741;SDS011;53654;54.152;19.432;2022-12-18T03:05:25;77.20;;;29.30;;
66741;SDS011;53654;54.152;19.432;2022-12-18T03:08:20;83.90;;;29.40;;
66741;SDS011;53654;54.152;19.432;2022-12-18T03:10:51;72.30;;;28.70;;
66741;SDS011;53654;54.152;19.432;2022-12-18T03:13:28;66.80;;;31.00;;
66741;SDS011;53654;54.152;19.432;2022-12-18T03:16:08;69.20;;;29.80;;
66741;SDS011;53654;54.152;19.432;2022-12-18T03:18:41;69.90;;;30.70;;
66741;SDS011;53654;54.152;19.432;2022-12-18T03:21:14;88.00;;;31.00;;
66741;SDS011;53654;54.152;19.432;2022-12-18T03:23:44;79.40;;;31.30;;
66741;SDS011;53654;54.152;19.432;2022-12-18T03:26:16;88.60;;;28.80;;
66741;SDS011;53654;54.152;19.432;2022-12-18T03:29:00;60.50;;;29.70;;
66741;SDS011;53654;54.152;19.432;2022-12-18T03:31:34;85.90;;;27.00;;
66741;SDS011;53654;54.152;19.432;2022-12-18T03:34:09;77.20;;;29.70;;
66741;SDS011;53654;54.152;19.432;2022-12-18T03:36:42;59.10;;;30.00;;
66741;SDS011;53654;54.152;19.432;2022-12-18T03:39:10;69.60;;;30.80;;
66741;SDS011;53654;54.152;19.432;2022-12-18T03:41:44;71.40;;;32.30;;
66741;SDS011;53654;54.152;19.432;2022-12-18T03:44:31;82.40;;;33.70;;
66741;SDS011;53654;54.152;19.432;2022-12-18T03:50:13;62.40;;;31.10;;
66741;SDS011;53654;54.152;19.432;2022-12-18T03:55:22;79.50;;;30.70;;
66741;SDS011;53654;54.152;19.432;2022-12-18T03:57:56;89.20;;;30.80;;
66741;SDS011;53654;54.152;19.432;2022-12-18T04:00:27;66.50;;;30.70;;
66741;SDS011;53654;54.152;19.432;2022-12-18T04:03:02;53.50;;;30.90;;
66741;SDS011;53654;54.152;19.432;2022-12-18T04:05:35;59.10;;;29.70;;
66741;SDS011;53654;54.152;19.432;2022-12-18T04:08:05;68.30;;;30.90;;
66741;SDS011;53654;54.152;19.432;2022-12-18T04:10:34;63.20;;;32.90;;
66741;SDS011;53654;54.152;19.432;2022-12-18T04:13:02;56.20;;;32.90;;
66741;SDS011;53654;54.152;19.432;2022-12-18T04:15:29;55.70;;;32.80;;
66741;SDS011;53654;54.152;19.432;2022-12-18T04:17:57;57.90;;;32.10;;
66741;SDS011;53654;54.152;19.432;2022-12-18T04:20:24;56.10;;;33.20;;
66741;SDS011;53654;54.152;19.432;2022-12-18T04:22:52;58.30;;;32.60;;
66741;SDS011;53654;54.152;19.432;2022-12-18T04:25:19;54.10;;;31.10;;
66741;SDS011;53654;54.152;19.432;2022-12-18T04:28:15;62.60;;;36.30;;
66741;SDS011;53654;54.152;19.432;2022-12-18T04:30:42;61.40;;;36.20;;
66741;SDS011;53654;54.152;19.432;2022-12-18T04:33:09;56.10;;;34.50;;
66741;SDS011;53654;54.152;19.432;2022-12-18T04:35:38;50.80;;;33.30;;
66741;SDS011;53654;54.152;19.432;2022-12-18T04:38:08;48.90;;;32.10;;
66741;SDS011;53654;54.152;19.432;2022-12-18T04:40:35;46.70;;;31.70;;
66741;SDS011;53654;54.152;19.432;2022-12-18T04:43:04;42.50;;;29.80;;
66741;SDS011;53654;54.152;19.432;2022-12-18T04:45:31;41.20;;;28.50;;
66741;SDS011;53654;54.152;19.432;2022-12-18T04:47:59;39.80;;;28.70;;
66741;SDS011;53654;54.152;19.432;2022-12-18T04:50:26;40.50;;;28.00;;
66741;SDS011;53654;54.152;19.432;2022-12-18T04:52:54;42.50;;;30.50;;
66741;SDS011;53654;54.152;19.432;2022-12-18T04:55:21;42.80;;;29.90;;
66741;SDS011;53654;54.152;19.432;2022-12-18T04:57:48;48.40;;;32.60;;
66741;SDS011;53654;54.152;19.432;2022-12-18T05:00:14;49.50;;;33.30;;
66741;SDS011;53654;54.152;19.432;2022-12-18T05:02:41;49.30;;;33.80;;
66741;SDS011;53654;54.152;19.432;2022-12-18T05:05:08;47.40;;;32.90;;
66741;SDS011;53654;54.152;19.432;2022-12-18T05:07:36;49.60;;;33.50;;
66741;SDS011;53654;54.152;19.432;2022-12-18T05:10:03;47.30;;;32.70;;
66741;SDS011;53654;54.152;19.432;2022-12-18T05:12:31;47.00;;;32.50;;
66741;SDS011;53654;54.152;19.432;2022-12-18T05:14:58;49.80;;;33.60;;
66741;SDS011;53654;54.152;19.432;2022-12-18T05:17:25;48.50;;;34.80;;
66741;SDS011;53654;54.152;19.432;2022-12-18T05:19:51;49.90;;;34.40;;
66741;SDS011;53654;54.152;19.432;2022-12-18T05:22:18;46.80;;;33.30;;
66741;SDS011;53654;54.152;19.432;2022-12-18T05:24:45;46.20;;;32.70;;
66741;SDS011;53654;54.152;19.432;2022-12-18T05:27:11;48.60;;;33.50;;
66741;SDS011;53654;54.152;19.432;2022-12-18T05:29:38;47.80;;;34.00;;
66741;SDS011;53654;54.152;19.432;2022-12-18T05:32:05;51.70;;;35.60;;
66741;SDS011;53654;54.152;19.432;2022-12-18T05:34:31;51.50;;;35.70;;
66741;SDS011;53654;54.152;19.432;2022-12-18T05:36:59;53.40;;;36.90;;
66741;SDS011;53654;54.152;19.432;2022-12-18T05:39:26;49.90;;;35.60;;
66741;SDS011;53654;54.152;19.432;2022-12-18T05:41:53;47.80;;;34.40;;
66741;SDS011;53654;54.152;19.432;2022-12-18T05:44:19;45.40;;;32.80;;
66741;SDS011;53654;54.152;19.432;2022-12-18T05:46:46;43.50;;;31.70;;
66741;SDS011;53654;54.152;19.432;2022-12-18T05:49:13;42.60;;;30.90;;
66741;SDS011;53654;54.152;19.432;2022-12-18T05:51:39;43.20;;;30.40;;
66741;SDS011;53654;54.152;19.432;2022-12-18T05:54:07;42.70;;;30.60;;
66741;SDS011;53654;54.152;19.432;2022-12-18T05:56:33;40.70;;;30.30;;
66741;SDS011;53654;54.152;19.432;2022-12-18T05:59:00;40.30;;;30.40;;
66741;SDS011;53654;54.152;19.432;2022-12-18T06:01:27;44.40;;;31.60;;
66741;SDS011;53654;54.152;19.432;2022-12-18T06:03:54;40.40;;;30.00;;
66741;SDS011;53654;54.152;19.432;2022-12-18T06:06:23;46.10;;;33.50;;
66741;SDS011;53654;54.152;19.432;2022-12-18T06:08:52;44.80;;;32.40;;
66741;SDS011;53654;54.152;19.432;2022-12-18T06:11:20;45.20;;;32.30;;
66741;SDS011;53654;54.152;19.432;2022-12-18T06:13:50;43.40;;;31.60;;
66741;SDS011;53654;54.152;19.432;2022-12-18T06:16:25;40.90;;;31.00;;
66741;SDS011;53654;54.152;19.432;2022-12-18T06:18:53;45.30;;;33.30;;
66741;SDS011;53654;54.152;19.432;2022-12-18T06:21:22;43.60;;;33.00;;
66741;SDS011;53654;54.152;19.432;2022-12-18T06:23:48;43.30;;;31.50;;
66741;SDS011;53654;54.152;19.432;2022-12-18T06:26:15;41.80;;;31.10;;
66741;SDS011;53654;54.152;19.432;2022-12-18T06:28:42;44.10;;;31.80;;
66741;SDS011;53654;54.152;19.432;2022-12-18T06:31:09;43.00;;;30.80;;
66741;SDS011;53654;54.152;19.432;2022-12-18T06:33:36;40.70;;;30.20;;
66741;SDS011;53654;54.152;19.432;2022-12-18T06:36:08;42.20;;;30.90;;
66741;SDS011;53654;54.152;19.432;2022-12-18T06:38:38;45.00;;;32.20;;
66741;SDS011;53654;54.152;19.432;2022-12-18T06:41:08;44.60;;;33.00;;
66741;SDS011;53654;54.152;19.432;2022-12-18T06:43:36;46.20;;;33.60;;
66741;SDS011;53654;54.152;19.432;2022-12-18T06:46:04;46.20;;;32.80;;
66741;SDS011;53654;54.152;19.432;2022-12-18T06:48:31;46.30;;;34.30;;
66741;SDS011;53654;54.152;19.432;2022-12-18T06:50:58;51.10;;;37.50;;
66741;SDS011;53654;54.152;19.432;2022-12-18T06:53:25;48.90;;;36.80;;
66741;SDS011;53654;54.152;19.432;2022-12-18T06:55:58;50.10;;;36.90;;
66741;SDS011;53654;54.152;19.432;2022-12-18T06:58:33;50.00;;;36.50;;
66741;SDS011;53654;54.152;19.432;2022-12-18T07:01:00;59.20;;;38.80;;
66741;SDS011;53654;54.152;19.432;2022-12-18T07:03:28;62.70;;;39.20;;
66741;SDS011;53654;54.152;19.432;2022-12-18T07:05:55;63.60;;;38.60;;
66741;SDS011;53654;54.152;19.432;2022-12-18T07:08:22;60.10;;;38.30;;
66741;SDS011;53654;54.152;19.432;2022-12-18T07:10:49;56.00;;;34.90;;
66741;SDS011;53654;54.152;19.432;2022-12-18T07:13:22;55.90;;;35.80;;
66741;SDS011;53654;54.152;19.432;2022-12-18T07:15:49;49.40;;;33.60;;
66741;SDS011;53654;54.152;19.432;2022-12-18T07:18:16;49.00;;;33.10;;
66741;SDS011;53654;54.152;19.432;2022-12-18T07:20:43;50.50;;;35.80;;
66741;SDS011;53654;54.152;19.432;2022-12-18T07:23:11;50.00;;;35.30;;
66741;SDS011;53654;54.152;19.432;2022-12-18T07:25:38;49.80;;;35.50;;
66741;SDS011;53654;54.152;19.432;2022-12-18T07:28:05;46.40;;;34.20;;
66741;SDS011;53654;54.152;19.432;2022-12-18T07:30:32;51.30;;;36.80;;
66741;SDS011;53654;54.152;19.432;2022-12-18T07:32:59;54.80;;;38.20;;
66741;SDS011;53654;54.152;19.432;2022-12-18T07:35:25;50.80;;;36.80;;
66741;SDS011;53654;54.152;19.432;2022-12-18T07:37:52;54.50;;;37.20;;
66741;SDS011;53654;54.152;19.432;2022-12-18T07:40:19;58.60;;;39.60;;
66741;SDS011;53654;54.152;19.432;2022-12-18T07:42:45;77.60;;;49.10;;
66741;SDS011;53654;54.152;19.432;2022-12-18T07:45:12;85.50;;;51.00;;
66741;SDS011;53654;54.152;19.432;2022-12-18T07:47:39;73.90;;;45.90;;
66741;SDS011;53654;54.152;19.432;2022-12-18T07:50:07;66.70;;;41.10;;
66741;SDS011;53654;54.152;19.432;2022-12-18T07:52:34;77.60;;;47.20;;
66741;SDS011;53654;54.152;19.432;2022-12-18T07:55:01;78.20;;;49.20;;
66741;SDS011;53654;54.152;19.432;2022-12-18T07:57:28;85.40;;;51.40;;
66741;SDS011;53654;54.152;19.432;2022-12-18T08:00:15;87.00;;;52.00;;
66741;SDS011;53654;54.152;19.432;2022-12-18T08:02:42;82.10;;;53.40;;
66741;SDS011;53654;54.152;19.432;2022-12-18T08:05:09;79.70;;;52.20;;
66741;SDS011;53654;54.152;19.432;2022-12-18T08:07:36;80.80;;;51.50;;
66741;SDS011;53654;54.152;19.432;2022-12-18T08:10:03;74.10;;;45.80;;
66741;SDS011;53654;54.152;19.432;2022-12-18T08:12:32;76.80;;;45.80;;
66741;SDS011;53654;54.152;19.432;2022-12-18T08:14:58;77.40;;;45.80;;
66741;SDS011;53654;54.152;19.432;2022-12-18T08:17:25;71.10;;;45.40;;
66741;SDS011;53654;54.152;19.432;2022-12-18T08:19:52;68.40;;;45.40;;
66741;SDS011;53654;54.152;19.432;2022-12-18T08:22:19;64.50;;;42.00;;
66741;SDS011;53654;54.152;19.432;2022-12-18T08:24:45;72.20;;;43.80;;
66741;SDS011;53654;54.152;19.432;2022-12-18T08:27:12;64.00;;;42.00;;
66741;SDS011;53654;54.152;19.432;2022-12-18T08:29:56;84.90;;;48.60;;
66741;SDS011;53654;54.152;19.432;2022-12-18T08:32:23;103.10;;;56.20;;
66741;SDS011;53654;54.152;19.432;2022-12-18T08:34:51;83.30;;;50.20;;
66741;SDS011;53654;54.152;19.432;2022-12-18T08:37:18;70.40;;;44.30;;
66741;SDS011;53654;54.152;19.432;2022-12-18T08:39:45;76.50;;;48.60;;
66741;SDS011;53654;54.152;19.432;2022-12-18T08:42:12;81.70;;;48.40;;
66741;SDS011;53654;54.152;19.432;2022-12-18T08:45:00;102.60;;;56.80;;
66741;SDS011;53654;54.152;19.432;2022-12-18T08:47:27;77.60;;;50.40;;
66741;SDS011;53654;54.152;19.432;2022-12-18T08:49:54;63.70;;;42.50;;
66741;SDS011;53654;54.152;19.432;2022-12-18T08:52:21;68.70;;;46.00;;
66741;SDS011;53654;54.152;19.432;2022-12-18T08:54:48;64.80;;;42.50;;
66741;SDS011;53654;54.152;19.432;2022-12-18T08:57:14;65.00;;;43.60;;
66741;SDS011;53654;54.152;19.432;2022-12-18T08:59:41;62.70;;;42.70;;
66741;SDS011;53654;54.152;19.432;2022-12-18T09:02:10;59.20;;;44.10;;
66741;SDS011;53654;54.152;19.432;2022-12-18T09:04:37;58.80;;;42.80;;
66741;SDS011;53654;54.152;19.432;2022-12-18T09:07:06;54.30;;;42.40;;
66741;SDS011;53654;54.152;19.432;2022-12-18T09:09:32;54.50;;;41.40;;
66741;SDS011;53654;54.152;19.432;2022-12-18T09:11:59;59.80;;;41.80;;
66741;SDS011;53654;54.152;19.432;2022-12-18T09:14:26;57.70;;;43.80;;
66741;SDS011;53654;54.152;19.432;2022-12-18T09:16:53;55.50;;;41.10;;
66741;SDS011;53654;54.152;19.432;2022-12-18T09:19:20;54.70;;;38.90;;
66741;SDS011;53654;54.152;19.432;2022-12-18T09:21:46;53.40;;;38.70;;
66741;SDS011;53654;54.152;19.432;2022-12-18T09:24:15;52.70;;;37.40;;
66741;SDS011;53654;54.152;19.432;2022-12-18T09:26:42;48.60;;;35.30;;
66741;SDS011;53654;54.152;19.432;2022-12-18T09:29:10;51.40;;;37.80;;
66741;SDS011;53654;54.152;19.432;2022-12-18T09:31:38;52.60;;;38.40;;
66741;SDS011;53654;54.152;19.432;2022-12-18T09:34:05;53.70;;;39.00;;
66741;SDS011;53654;54.152;19.432;2022-12-18T09:36:33;56.90;;;41.00;;
66741;SDS011;53654;54.152;19.432;2022-12-18T09:38:59;57.00;;;40.70;;
66741;SDS011;53654;54.152;19.432;2022-12-18T09:41:47;64.10;;;44.80;;
66741;SDS011;53654;54.152;19.432;2022-12-18T09:44:24;50.00;;;37.40;;
66741;SDS011;53654;54.152;19.432;2022-12-18T09:49:43;52.20;;;39.30;;
66741;SDS011;53654;54.152;19.432;2022-12-18T09:52:14;49.90;;;38.10;;
66741;SDS011;53654;54.152;19.432;2022-12-18T09:54:53;53.20;;;40.10;;
66741;SDS011;53654;54.152;19.432;2022-12-18T09:57:39;52.70;;;37.90;;
66741;SDS011;53654;54.152;19.432;2022-12-18T10:02:44;48.90;;;35.30;;
66741;SDS011;53654;54.152;19.432;2022-12-18T10:11:16;47.50;;;35.30;;
66741;SDS011;53654;54.152;19.432;2022-12-18T10:13:54;44.50;;;33.60;;
66741;SDS011;53654;54.152;19.432;2022-12-18T10:17:35;54.30;;;39.10;;
66741;SDS011;53654;54.152;19.432;2022-12-18T10:19:49;52.60;;;38.90;;
66741;SDS011;53654;54.152;19.432;2022-12-18T10:25:17;48.70;;;36.60;;
66741;SDS011;53654;54.152;19.432;2022-12-18T10:27:45;43.10;;;32.60;;
66741;SDS011;53654;54.152;19.432;2022-12-18T10:30:12;44.90;;;34.40;;
66741;SDS011;53654;54.152;19.432;2022-12-18T10:32:41;45.70;;;36.10;;
66741;SDS011;53654;54.152;19.432;2022-12-18T10:35:17;45.90;;;35.00;;
66741;SDS011;53654;54.152;19.432;2022-12-18T10:38:06;47.90;;;34.50;;
66741;SDS011;53654;54.152;19.432;2022-12-18T10:43:30;51.70;;;37.20;;
66741;SDS011;53654;54.152;19.432;2022-12-18T10:48:24;59.90;;;40.40;;
66741;SDS011;53654;54.152;19.432;2022-12-18T10:50:51;57.50;;;40.60;;
66741;SDS011;53654;54.152;19.432;2022-12-18T10:53:38;59.10;;;41.30;;
66741;SDS011;53654;54.152;19.432;2022-12-18T10:56:08;58.40;;;40.60;;
66741;SDS011;53654;54.152;19.432;2022-12-18T10:58:36;47.50;;;35.70;;
66741;SDS011;53654;54.152;19.432;2022-12-18T11:01:09;48.60;;;36.30;;
66741;SDS011;53654;54.152;19.432;2022-12-18T11:06:12;46.70;;;35.00;;
66741;SDS011;53654;54.152;19.432;2022-12-18T11:08:41;45.80;;;34.50;;
66741;SDS011;53654;54.152;19.432;2022-12-18T11:11:20;46.50;;;34.50;;
66741;SDS011;53654;54.152;19.432;2022-12-18T11:14:32;43.80;;;34.60;;
66741;SDS011;53654;54.152;19.432;2022-12-18T11:16:45;45.40;;;34.80;;
66741;SDS011;53654;54.152;19.432;2022-12-18T11:19:35;47.10;;;36.70;;
66741;SDS011;53654;54.152;19.432;2022-12-18T11:22:17;46.90;;;36.80;;
66741;SDS011;53654;54.152;19.432;2022-12-18T11:24:50;60.50;;;42.80;;
66741;SDS011;53654;54.152;19.432;2022-12-18T11:27:40;63.90;;;44.00;;
66741;SDS011;53654;54.152;19.432;2022-12-18T11:32:50;57.40;;;41.60;;
66741;SDS011;53654;54.152;19.432;2022-12-18T11:35:32;62.60;;;44.60;;
66741;SDS011;53654;54.152;19.432;2022-12-18T11:38:14;53.60;;;38.90;;
66741;SDS011;53654;54.152;19.432;2022-12-18T11:40:45;49.60;;;39.30;;
66741;SDS011;53654;54.152;19.432;2022-12-18T11:43:28;49.80;;;38.60;;
66741;SDS011;53654;54.152;19.432;2022-12-18T11:46:11;47.80;;;35.90;;
66741;SDS011;53654;54.152;19.432;2022-12-18T11:48:48;43.60;;;33.80;;
66741;SDS011;53654;54.152;19.432;2022-12-18T11:51:23;45.70;;;33.50;;
66741;SDS011;53654;54.152;19.432;2022-12-18T11:53:58;49.40;;;36.60;;
66741;SDS011;53654;54.152;19.432;2022-12-18T11:56:35;47.60;;;36.10;;
66741;SDS011;53654;54.152;19.432;2022-12-18T11:59:12;47.60;;;35.70;;
66741;SDS011;53654;54.152;19.432;2022-12-18T12:07:45;46.00;;;35.00;;
66741;SDS011;53654;54.152;19.432;2022-12-18T12:16:21;48.30;;;36.00;;
66741;SDS011;53654;54.152;19.432;2022-12-18T12:19:00;49.00;;;36.80;;
66741;SDS011;53654;54.152;19.432;2022-12-18T12:21:45;48.00;;;35.30;;
66741;SDS011;53654;54.152;19.432;2022-12-18T12:27:10;44.60;;;34.20;;
66741;SDS011;53654;54.152;19.432;2022-12-18T12:35:22;43.70;;;33.10;;
66741;SDS011;53654;54.152;19.432;2022-12-18T12:41:11;51.70;;;39.00;;
66741;SDS011;53654;54.152;19.432;2022-12-18T12:44:03;51.40;;;38.30;;
66741;SDS011;53654;54.152;19.432;2022-12-18T12:46:37;48.20;;;36.70;;
66741;SDS011;53654;54.152;19.432;2022-12-18T12:49:09;46.80;;;35.80;;
66741;SDS011;53654;54.152;19.432;2022-12-18T12:51:41;44.00;;;33.50;;
66741;SDS011;53654;54.152;19.432;2022-12-18T12:54:17;47.70;;;36.40;;
66741;SDS011;53654;54.152;19.432;2022-12-18T13:02:22;49.20;;;35.80;;
66741;SDS011;53654;54.152;19.432;2022-12-18T13:08:29;48.90;;;36.70;;
66741;SDS011;53654;54.152;19.432;2022-12-18T13:10:37;43.80;;;33.50;;
66741;SDS011;53654;54.152;19.432;2022-12-18T13:13:12;46.90;;;35.20;;
66741;SDS011;53654;54.152;19.432;2022-12-18T13:15:45;47.00;;;35.50;;
66741;SDS011;53654;54.152;19.432;2022-12-18T13:18:17;47.20;;;35.90;;
66741;SDS011;53654;54.152;19.432;2022-12-18T13:20:48;51.80;;;38.50;;
66741;SDS011;53654;54.152;19.432;2022-12-18T13:23:30;51.10;;;39.00;;
66741;SDS011;53654;54.152;19.432;2022-12-18T13:28:54;57.50;;;41.60;;
66741;SDS011;53654;54.152;19.432;2022-12-18T13:36:55;59.90;;;43.30;;
66741;SDS011;53654;54.152;19.432;2022-12-18T13:39:43;59.90;;;43.50;;
66741;SDS011;53654;54.152;19.432;2022-12-18T13:44:57;59.50;;;44.40;;
66741;SDS011;53654;54.152;19.432;2022-12-18T13:47:34;54.40;;;41.10;;
66741;SDS011;53654;54.152;19.432;2022-12-18T13:50:38;49.00;;;37.30;;
66741;SDS011;53654;54.152;19.432;2022-12-18T13:53:02;51.10;;;37.80;;
66741;SDS011;53654;54.152;19.432;2022-12-18T13:55:31;47.20;;;35.60;;
66741;SDS011;53654;54.152;19.432;2022-12-18T13:58:05;47.20;;;36.00;;
66741;SDS011;53654;54.152;19.432;2022-12-18T14:00:33;47.60;;;35.70;;
66741;SDS011;53654;54.152;19.432;2022-12-18T14:03:00;45.90;;;35.40;;
66741;SDS011;53654;54.152;19.432;2022-12-18T14:05:29;48.50;;;36.50;;
66741;SDS011;53654;54.152;19.432;2022-12-18T14:08:00;50.10;;;37.60;;
66741;SDS011;53654;54.152;19.432;2022-12-18T14:10:29;48.50;;;36.40;;
66741;SDS011;53654;54.152;19.432;2022-12-18T14:13:36;53.80;;;40.10;;
66741;SDS011;53654;54.152;19.432;2022-12-18T14:16:07;55.60;;;41.30;;
66741;SDS011;53654;54.152;19.432;2022-12-18T14:21:47;69.20;;;50.80;;
66741;SDS011;53654;54.152;19.432;2022-12-18T14:24:19;72.40;;;54.10;;
66741;SDS011;53654;54.152;19.432;2022-12-18T14:26:48;65.50;;;51.60;;
66741;SDS011;53654;54.152;19.432;2022-12-18T14:29:26;63.20;;;46.80;;
66741;SDS011;53654;54.152;19.432;2022-12-18T14:32:11;63.50;;;46.30;;
66741;SDS011;53654;54.152;19.432;2022-12-18T14:34:50;66.90;;;47.80;;
66741;SDS011;53654;54.152;19.432;2022-12-18T14:37:20;69.30;;;48.10;;
66741;SDS011;53654;54.152;19.432;2022-12-18T14:39:53;63.40;;;46.10;;
66741;SDS011;53654;54.152;19.432;2022-12-18T14:42:20;69.70;;;50.30;;
66741;SDS011;53654;54.152;19.432;2022-12-18T14:44:47;68.20;;;50.70;;
66741;SDS011;53654;54.152;19.432;2022-12-18T14:47:34;73.60;;;51.00;;
66741;SDS011;53654;54.152;19.432;2022-12-18T14:50:01;79.70;;;52.30;;
66741;SDS011;53654;54.152;19.432;2022-12-18T14:52:28;84.80;;;52.90;;
66741;SDS011;53654;54.152;19.432;2022-12-18T14:54:58;98.80;;;57.70;;
66741;SDS011;53654;54.152;19.432;2022-12-18T14:57:25;117.70;;;64.70;;
66741;SDS011;53654;54.152;19.432;2022-12-18T15:00:33;102.30;;;62.80;;
66741;SDS011;53654;54.152;19.432;2022-12-18T15:02:54;101.10;;;60.00;;
66741;SDS011;53654;54.152;19.432;2022-12-18T15:05:27;91.50;;;56.40;;
66741;SDS011;53654;54.152;19.432;2022-12-18T15:07:57;95.90;;;57.10;;
66741;SDS011;53654;54.152;19.432;2022-12-18T15:10:26;118.90;;;65.30;;
66741;SDS011;53654;54.152;19.432;2022-12-18T15:17:59;91.00;;;55.40;;
66741;SDS011;53654;54.152;19.432;2022-12-18T15:20:27;80.50;;;51.30;;
66741;SDS011;53654;54.152;19.432;2022-12-18T15:22:54;92.00;;;54.60;;
66741;SDS011;53654;54.152;19.432;2022-12-18T15:25:27;93.00;;;57.80;;
66741;SDS011;53654;54.152;19.432;2022-12-18T15:28:00;74.50;;;49.10;;
66741;SDS011;53654;54.152;19.432;2022-12-18T15:30:27;77.10;;;48.70;;
66741;SDS011;53654;54.152;19.432;2022-12-18T15:33:16;70.20;;;47.00;;
66741;SDS011;53654;54.152;19.432;2022-12-18T15:35:57;69.90;;;46.10;;
66741;SDS011;53654;54.152;19.432;2022-12-18T15:38:25;68.20;;;45.00;;
66741;SDS011;53654;54.152;19.432;2022-12-18T15:40:53;68.10;;;45.30;;
66741;SDS011;53654;54.152;19.432;2022-12-18T15:43:24;65.80;;;44.70;;
66741;SDS011;53654;54.152;19.432;2022-12-18T15:48:35;66.30;;;43.30;;
66741;SDS011;53654;54.152;19.432;2022-12-18T15:51:49;65.00;;;44.30;;
66741;SDS011;53654;54.152;19.432;2022-12-18T15:54:02;68.20;;;45.00;;
66741;SDS011;53654;54.152;19.432;2022-12-18T15:56:31;67.80;;;44.80;;
66741;SDS011;53654;54.152;19.432;2022-12-18T15:59:18;63.30;;;42.70;;
66741;SDS011;53654;54.152;19.432;2022-12-18T16:01:46;66.90;;;43.80;;
66741;SDS011;53654;54.152;19.432;2022-12-18T16:04:16;69.30;;;45.00;;
66741;SDS011;53654;54.152;19.432;2022-12-18T16:06:47;73.50;;;47.00;;
66741;SDS011;53654;54.152;19.432;2022-12-18T16:09:34;70.90;;;44.30;;
66741;SDS011;53654;54.152;19.432;2022-12-18T16:12:01;70.80;;;45.30;;
66741;SDS011;53654;54.152;19.432;2022-12-18T16:14:29;65.50;;;42.10;;
66741;SDS011;53654;54.152;19.432;2022-12-18T16:17:00;65.30;;;41.80;;